Latest Coastal Weather Observations for Lord Howe Island

IDN60701

Issued at 5:35 pm EDT Wednesday 26 November 2014 (issued every 10 minutes, with the page automatically refreshed every 10 minutes)

About coastal observations | Map of coastal stations | Coastal observations for NSW | Marine services | Other Formats
Station Details ID: 200839 Name: LORD HOWE ISLAND AERO Lat: -31.54 Lon: 159.08 Height: 5.0 m
Data from the previous 72 hours. | See also: Recent months at Lord Howe Island
Date/Time
EDT
Temp

°C
Wind Pressure Rain
since 9am
mm
Weather Cloud Vis
km
Sea
Height
m
Swell
Dir
 
Speed
knots
Gust
knots
hPa Trend Height
m
Period
s
Dir
26/05:30pm 20.7 E 9 11 1017.8 - 4.8 - Partly cloudy 10 - - - -
26/05:10pm 20.7 E 9 12 1017.8 - 4.8 - Partly cloudy 10 - - - -
26/05:00pm 20.7 E 9 11 1017.8 - 4.8 - Partly cloudy 10 - - - -
26/04:30pm 20.7 E 10 11 1017.8 - 4.8 - Partly cloudy 10 - - - -
26/04:00pm 20.8 E 10 12 1017.8 - 4.8 - Partly cloudy 10 - - - -
26/03:30pm 20.8 E 9 11 1017.9 - 4.6 - Partly cloudy 10 - - - -
26/03:00pm 20.7 E 11 13 1018.0 R 4.6 Rain Cloudy 15 - - - -
26/02:47pm 20.8 E 11 14 1017.9 - 4.6 - Partly cloudy 10 - - - -
26/02:30pm 20.7 E 11 13 1018.1 - 4.4 Rain Mostly clear 10 - - - -
26/02:00pm 21.0 E 10 12 1018.4 - 4.4 Rain Mostly clear 10 - - - -
26/01:30pm 20.8 E 10 12 1018.4 - 4.4 Rain Mostly clear 10 - - - -
26/01:00pm 20.9 E 11 13 1018.6 - 4.4 Rain Mostly clear 10 - - - -
26/12:30pm 20.8 E 12 14 1018.7 - 4.4 - Mostly clear 10 - - - -
26/12:00pm 21.2 E 12 15 1018.7 R 4.4 Rain Cloudy 20 - - - -
26/11:30am 20.5 E 14 17 1018.9 - 4.2 - Mostly clear 10 - - - -
26/11:00am 19.9 E 14 17 1018.9 - 4.2 - Mostly clear 10 - - - -
26/10:30am 19.4 E 15 22 1019.0 - 4.2 Rain Mostly clear 10 - - - -
26/10:00am 19.5 ESE 12 18 1018.9 - 4.2 Rain Mostly clear 10 - - - -
26/09:55am 19.3 ESE 12 18 1019.1 - 4.2 Rain Mostly clear 10 - - - -
26/09:30am 18.8 E 14 20 1019.0 - 2.6 Rain Mostly clear 6 - - - -
26/09:21am 19.0 ESE 13 18 1019.2 - 1.0 Rain Mostly clear 6 - - - -
26/09:00am 19.0 E 17 23 1018.9 R 15.0 Rain Cloudy 10 - - - -
26/08:30am 18.9 ESE 11 22 1018.9 - 11.0 Rain Partly cloudy 4 - - - -
26/08:15am 19.2 ESE 9 18 1019.0 - 7.6 Rain Partly cloudy 4 - - - -
26/08:00am 19.3 ESE 9 15 1018.9 - 4.2 Rain Mostly clear 5 - - - -
26/07:57am 19.3 SE 10 18 1018.8 - 4.0 Rain Mostly clear 5 - - - -
26/07:50am 19.5 ESE 15 26 1018.8 - 3.4 Drizzle Mostly clear 7 - - - -
26/07:30am 19.6 E 19 26 1018.3 - 3.4 - Mostly clear 10 - - - -
26/07:16am 19.6 E 15 23 1018.2 - 3.4 - Partly cloudy 8 - - - -
26/07:00am 19.5 ESE 13 20 1018.1 - 3.2 Rain Mostly clear 8 - - - -
26/06:46am 20.1 E 14 21 1018.0 - 1.2 Rain Mostly clear 4 - - - -
26/06:30am 20.8 E 16 24 1017.8 - 0.6 - Mostly clear 10 - - - -
26/06:04am 20.7 ESE 16 26 1017.3 - 0.6 - Mostly clear 10 - - - -
26/06:00am 20.8 E 17 24 1017.3 R 0.6 Fine Mostly cloudy 20 - - - -
26/05:30am 20.5 ESE 12 24 1017.2 - 0.6 - Partly cloudy 10 - - - -
26/05:00am 20.6 ESE 11 19 1017.1 - 0.4 - Partly cloudy 10 - - - -
26/04:30am 20.5 ESE 14 25 1016.5 - 0.4 - Cloudy 10 - - - -
26/04:10am 20.4 ESE 15 25 1016.5 - 0.4 - Cloudy 9 - - - -
26/04:06am 20.5 E 19 25 1016.3 - 0.4 - Partly cloudy 7 - - - -
26/04:00am 20.5 SE 13 19 1016.5 - 0.4 - Partly cloudy 8 - - - -
26/03:36am 20.8 ESE 13 21 1016.5 - 0.4 - Partly cloudy 6 - - - -
26/03:30am 20.9 SE 12 21 1016.5 - 0.4 - Partly cloudy 7 - - - -
26/03:12am 21.0 ESE 12 18 1016.6 - 0.4 - Partly cloudy 8 - - - -
26/03:00am 21.1 SE 12 19 1016.5 - 0.4 - Cloudy 9 - - - -
26/02:42am 21.3 SE 10 17 1016.7 - 0.4 - Partly cloudy 10 - - - -
26/02:40am 21.4 SE 10 17 1016.7 - 0.4 - Partly cloudy 10 - - - -
26/02:30am 21.3 ESE 10 15 1016.6 - 0.4 - Partly cloudy 10 - - - -
26/02:28am 21.5 ESE 10 15 1016.6 - 0.4 - Partly cloudy 10 - - - -
26/02:22am 21.4 SE 11 18 1016.7 - 0.4 - Partly cloudy 10 - - - -
26/02:19am 21.2 SE 10 18 1016.7 - 0.4 - Partly cloudy 10 - - - -
26/02:06am 21.1 ESE 10 15 1016.8 - 0.4 - Partly cloudy 6 - - - -
26/02:00am 21.3 ESE 10 15 1016.8 - 0.4 - Partly cloudy 8 - - - -
26/01:30am 22.3 ESE 7 11 1016.9 - 0.4 - Partly cloudy 10 - - - -
26/01:18am 21.9 ESE 6 9 1017.0 - 0.4 - Partly cloudy 10 - - - -
26/01:00am 22.2 ESE 5 9 1017.2 - 0.4 - Partly cloudy 5 - - - -
26/12:56am 22.3 SSE 5 7 1017.2 - 0.4 - Partly cloudy 6 - - - -
26/12:42am 22.7 NW 5 9 1017.3 - 0.0 - Partly cloudy 10 - - - -
26/12:30am 22.7 WNW 5 8 1017.4 - 0.0 - Partly cloudy 10 - - - -
26/12:23am 22.7 NW 4 8 1017.4 - 0.0 - Partly cloudy 10 - - - -
26/12:00am 22.7 NNW 6 9 1017.6 - 0.0 - Cloudy 9 - - - -
 
Date/Time
EDT
Temp

°C
Wind Pressure Rain
since 9am
mm
Weather Cloud Vis
km
Sea
Height
m
Swell
Dir
 
Speed
knots
Gust
knots
hPa Trend Height
m
Period
s
Dir
25/11:58pm 22.6 NNW 6 9 1017.7 - 0.0 - Partly cloudy 9 - - - -
25/11:30pm 22.7 NW 6 9 1018.1 - 0.0 - Partly cloudy 6 - - - -
25/11:18pm 22.9 NNW 7 11 1018.1 - 0.0 - Partly cloudy 10 - - - -
25/11:13pm 22.9 NNW 6 10 1018.1 - 0.0 - Partly cloudy 10 - - - -
25/11:00pm 23.0 NNW 6 11 1018.1 - 0.0 - Partly cloudy 10 - - - -
25/10:30pm 23.2 NNW 6 10 1018.0 - 0.0 - Cloudy 10 - - - -
25/10:00pm 23.2 NNW 5 9 1018.1 - 0.0 - Cloudy 10 - - - -
25/09:30pm 23.4 NW 5 9 1018.1 - 0.0 - Partly cloudy 10 - - - -
25/09:00pm 23.5 WNW 4 7 1017.9 - 0.0 - Mostly cloudy 10 - - - -
25/08:30pm 23.5 WNW 5 8 1017.7 - 0.0 - Partly cloudy 10 - - - -
25/08:00pm 23.5 WNW 5 8 1017.4 - 0.0 - Partly cloudy 10 - - - -
25/07:30pm 23.4 W 6 9 1017.2 - 0.0 - Partly cloudy 10 - - - -
25/07:00pm 23.3 WSW 5 8 1016.9 - 0.0 - Partly cloudy 10 - - - -
25/06:56pm 23.3 WSW 5 8 1016.8 - 0.0 - Partly cloudy 10 - - - -
25/06:30pm 23.3 WSW 7 10 1016.4 - 0.0 - Partly cloudy 10 - - - -
25/06:00pm 23.6 WSW 9 11 1016.1 - 0.0 - Cloudy 10 - - - -
25/05:30pm 23.7 WSW 11 13 1015.8 - 0.0 - Partly cloudy 10 - - - -
25/05:00pm 24.9 W 11 13 1015.5 - 0.0 - Partly cloudy 10 - - - -
25/04:30pm 25.5 W 10 14 1015.4 - 0.0 - Partly cloudy 10 - - - -
25/04:00pm 25.4 W 10 13 1015.5 - 0.0 - Partly cloudy 10 - - - -
25/03:30pm 24.9 W 10 13 1015.5 - 0.0 - Cloudy 10 - - - -
25/03:00pm 25.6 WNW 11 17 1015.5 S 0.0 Haze Partly cloudy 17 - - - -
25/02:30pm 25.7 WNW 10 14 1015.6 - 0.0 - Mostly clear 10 - - - -
25/02:00pm 25.5 WNW 11 18 1015.6 - 0.0 - Mostly clear 10 - - - -
25/01:30pm 25.8 WNW 10 17 1015.7 - 0.0 - Mostly clear 10 - - - -
25/01:00pm 25.6 WNW 11 16 1016.1 - 0.0 - Mostly clear 10 - - - -
25/12:30pm 25.5 WNW 11 18 1016.4 - 0.0 - Mostly clear 10 - - - -
25/12:00pm 25.4 WNW 12 20 1016.7 S 0.0 Haze Partly cloudy 20 - - - -
25/11:30am 25.7 WNW 10 18 1016.7 - 0.0 - Mostly clear 10 - - - -
25/11:00am 26.0 WNW 10 18 1016.8 - 0.0 - Mostly clear 10 - - - -
25/10:30am 25.8 NW 10 19 1017.0 - 0.0 - Mostly clear 10 - - - -
25/10:00am 24.8 NW 10 21 1017.2 - 0.0 - Mostly clear 10 - - - -
25/09:30am 24.5 N 7 12 1017.1 - 0.0 - Mostly clear 10 - - - -
25/09:00am 24.7 NW 10 23 1017.1 F 0.0 Haze Mostly cloudy 20 - - - -
25/08:30am 24.1 WNW 11 20 1017.2 - 0.0 - Mostly clear 10 - - - -
25/08:00am 24.2 NW 9 17 1017.3 - 0.0 - Mostly clear 10 - - - -
25/07:30am 23.1 NNW 8 15 1017.3 - 0.0 - Mostly clear 10 - - - -
25/07:00am 22.7 NW 9 17 1017.4 - 0.0 - Partly cloudy 10 - - - -
25/06:30am 22.6 WNW 6 11 1017.1 - 0.0 - Mostly cloudy 10 - - - -
25/06:00am 22.5 NNW 10 20 1016.6 R 0.0 Haze Mostly cloudy 20 - - - -
25/05:30am 22.4 NNW 10 18 1016.7 - 0.0 - Cloudy 10 - - - -
25/05:00am 22.1 N 8 16 1016.3 - 0.0 - Cloudy 10 - - - -
25/04:30am 22.2 N 8 19 1016.2 - 0.0 - Cloudy 10 - - - -
25/04:00am 22.3 NNE 7 11 1016.1 - 0.0 - Cloudy 10 - - - -
25/03:30am 22.1 N 7 15 1015.9 - 0.0 - Cloudy 10 - - - -
25/03:00am 22.1 NNE 9 17 1015.8 - 0.0 - Mostly cloudy 10 - - - -
25/02:30am 22.3 NNE 9 15 1015.9 - 0.0 - Partly cloudy 10 - - - -
25/02:00am 22.2 NNE 8 15 1016.4 - 0.0 - Partly cloudy 10 - - - -
25/01:30am 22.3 NNE 8 14 1016.8 - 0.0 - Cloudy 10 - - - -
25/01:00am 22.2 NNE 7 15 1017.2 - 0.0 - Cloudy 10 - - - -
25/12:30am 22.1 NNE 9 21 1017.2 - 0.0 - Partly cloudy 10 - - - -
25/12:00am 22.2 NNE 9 19 1017.3 - 0.0 - Mostly cloudy 10 - - - -
 
Date/Time
EDT
Temp

°C
Wind Pressure Rain
since 9am
mm
Weather Cloud Vis
km
Sea
Height
m
Swell
Dir
 
Speed
knots
Gust
knots
hPa Trend Height
m
Period
s
Dir
24/11:30pm 22.1 NNE 10 18 1017.6 - 0.0 - Partly cloudy 10 - - - -
24/11:00pm 22.0 NNE 8 19 1017.7 - 0.0 - Partly cloudy 10 - - - -
24/10:30pm 22.1 NNE 8 14 1018.0 - 0.0 - Partly cloudy 10 - - - -
24/10:00pm 22.2 NNE 9 19 1018.0 - 0.0 - Partly cloudy 10 - - - -
24/09:30pm 22.1 NNE 8 18 1017.9 - 0.0 - Partly cloudy 10 - - - -
24/09:00pm 22.1 N 7 12 1017.9 - 0.0 - Mostly cloudy 10 - - - -
24/08:31pm 22.0 NNE 6 11 1017.7 - 0.0 - Partly cloudy 10 - - - -
24/08:30pm 22.1 NE 6 11 1017.7 - 0.0 - Partly cloudy 10 - - - -
24/08:00pm 22.1 NNE 7 13 1017.3 - 0.0 - Partly cloudy 10 - - - -
24/07:51pm 22.0 NE 7 12 1017.2 - 0.0 - Partly cloudy 10 - - - -
24/07:43pm 22.0 NNE 7 13 1017.2 - 0.0 - Partly cloudy 10 - - - -
24/07:31pm 22.1 NNE 8 17 1017.1 - 0.0 - Partly cloudy 10 - - - -
24/07:30pm 22.2 NNE 9 17 1017.1 - 0.0 - Partly cloudy 10 - - - -
24/07:26pm 22.1 NE 10 20 1017.0 - 0.0 - Partly cloudy 10 - - - -
24/07:00pm 22.2 NE 7 15 1016.8 - 0.0 - Partly cloudy 10 - - - -
24/06:30pm 22.3 NE 5 9 1016.9 - 0.0 - Partly cloudy 10 - - - -
24/06:01pm 22.9 NE 8 15 1016.8 - 0.0 - Partly cloudy 10 - - - -
24/06:00pm 22.9 NE 8 15 1016.8 - 0.0 - Partly cloudy 10 - - - -
24/05:30pm 22.8 NE 9 17 1016.6 - 0.0 - Partly cloudy 10 - - - -
24/05:00pm 22.9 NE 9 16 1017.0 - 0.0 - Cloudy 10 - - - -
24/04:38pm 23.3 NE 10 15 1017.2 - 0.0 - Partly cloudy 10 - - - -
24/04:30pm 23.3 NE 10 15 1017.2 - 0.0 - Partly cloudy 10 - - - -
24/04:00pm 24.3 NNE 10 17 1017.5 - 0.0 - Partly cloudy 10 - - - -
24/03:55pm 23.8 NE 11 17 1017.5 - 0.0 - Partly cloudy 10 - - - -
24/03:30pm 24.3 NNE 6 12 1017.9 - 0.0 - Cloudy 10 - - - -
24/03:00pm 24.4 N 7 12 1018.2 F 0.0 Haze Partly cloudy 20 - - - -
24/02:30pm 24.4 NNW 9 15 1018.5 - 0.0 - Mostly clear 10 - - - -
24/02:00pm 24.3 NNW 11 17 1018.8 - 0.0 - Mostly clear 10 - - - -
24/01:30pm 24.7 NNW 10 15 1019.0 - 0.0 - Mostly clear 10 - - - -
24/01:00pm 24.8 NNW 11 16 1019.4 - 0.0 - Mostly clear 10 - - - -
24/12:30pm 24.0 N 11 18 1019.7 - 0.0 - Mostly clear 10 - - - -
24/12:00pm 24.9 N 10 14 1019.9 F 0.0 Haze Mostly clear 20 - - - -
24/11:30am 24.8 NNW 10 17 1020.2 - 0.0 - Partly cloudy 10 - - - -
24/11:00am 24.7 N 8 15 1020.5 - 0.0 - Mostly clear 10 - - - -
24/10:30am 25.2 N 9 14 1020.6 - 0.0 - Mostly clear 10 - - - -
24/10:00am 24.9 N 7 13 1020.6 - 0.0 - Mostly clear 10 - - - -
24/09:30am 24.6 NW 7 13 1020.7 - 0.0 - Mostly clear 10 - - - -
24/09:00am 24.4 NNW 7 13 1020.8 R 0.0 Haze Partly cloudy 22 - - - -
24/08:30am 23.4 N 6 13 1020.6 - 0.0 - Mostly clear 10 - - - -
24/08:00am 23.3 NW 8 11 1020.4 - 0.0 - Mostly clear 10 - - - -
24/07:30am 22.9 NW 6 11 1020.4 - 0.0 - Mostly clear 10 - - - -
24/07:00am 22.7 NW 7 13 1020.3 - 0.0 - Mostly clear 10 - - - -
24/06:30am 22.1 NW 7 15 1019.9 - 0.0 - Mostly clear 10 - - - -
24/06:00am 22.1 WNW 5 10 1019.5 F 0.0 Haze Mostly cloudy 18 - - - -
24/05:30am 21.6 NNW 5 8 1019.3 - 0.0 - Partly cloudy 10 - - - -
24/05:00am 21.4 N 5 7 1019.1 - 0.0 - Partly cloudy 10 - - - -
24/04:30am 21.3 N 5 11 1019.0 - 0.0 - - 10 - - - -
24/04:00am 21.7 N 5 10 1018.9 - 0.0 - Partly cloudy 10 - - - -
24/03:30am 21.6 NNW 5 9 1019.1 - 0.0 - Partly cloudy 10 - - - -
24/03:00am 21.7 N 3 7 1019.4 - 0.0 - Mostly cloudy 10 - - - -
24/02:39am 21.6 ESE 4 8 1019.5 - 0.0 - Partly cloudy 10 - - - -
24/02:30am 21.7 SSW 4 9 1019.4 - 0.0 - Partly cloudy 10 - - - -
24/02:22am 21.7 ENE 4 9 1019.3 - 0.0 - Partly cloudy 10 - - - -
24/02:00am 21.7 NNE 5 11 1019.3 - 0.0 - Partly cloudy 10 - - - -
24/01:59am 21.6 NE 5 11 1019.3 - 0.0 - Partly cloudy 10 - - - -
24/01:30am 21.6 NE 5 10 1019.7 - 0.0 - Partly cloudy 10 - - - -
24/01:00am 21.7 N 4 8 1020.0 - 0.0 - Cloudy 10 - - - -
24/12:30am 21.7 NNE 5 13 1020.0 - 0.0 - Cloudy 10 - - - -
24/12:00am 21.7 NE 5 14 1020.0 - 0.0 - Partly cloudy 10 - - - -
 
Date/Time
EDT
Temp

°C
Wind Pressure Rain
since 9am
mm
Weather Cloud Vis
km
Sea
Height
m
Swell
Dir
 
Speed
knots
Gust
knots
hPa Trend Height
m
Period
s
Dir
23/11:41pm 21.7 ENE 5 12 1020.1 - 0.0 - Partly cloudy 10 - - - -
23/11:30pm 21.8 N 6 10 1020.1 - 0.0 - Partly cloudy 10 - - - -
23/11:00pm 21.7 NNE 6 15 1019.9 - 0.0 - Partly cloudy 10 - - - -
23/10:30pm 21.7 NE 8 17 1020.0 - 0.0 - - 10 - - - -
23/10:00pm 21.8 NE 10 21 1019.8 - 0.0 - - 10 - - - -
23/09:30pm 21.8 NE 6 10 1020.1 - 0.0 - - 10 - - - -
23/09:00pm 21.9 NE 6 12 1019.9 - 0.0 - - 10 - - - -
23/08:30pm 21.8 NE 7 15 1019.6 - 0.0 - - 10 - - - -
23/08:00pm 21.8 NNE 6 11 1019.2 - 0.0 - - 10 - - - -
23/07:30pm 21.8 NE 9 14 1019.0 - 0.0 - - 10 - - - -
23/07:00pm 22.0 NE 9 17 1018.8 - 0.0 - - 10 - - - -
23/06:30pm 22.4 NNE 5 9 1018.6 - 0.0 - - 10 - - - -
23/06:00pm 22.9 NE 6 10 1018.5 - 0.0 - - 10 - - - -

Other Formats:

Comma delimited format used in spreadsheet applications
http://www.bom.gov.au/fwo/IDN60701/IDN60701.94995.axf

JavaScript Object Notation format (JSON) in row-major order
http://www.bom.gov.au/fwo/IDN60701/IDN60701.94995.json